Pagrindinis puslapis
METAR-TAF:

METAR-TAF

Oro uostai :

Sparrevohn, Aliaska, Jungtinės Amerikos Valstijos

platuma: 61-06N, ilguma: 155-34W, Aukštis: 484 m

Dabartinis oras

Ataskaita buvo paskelbta 32 minutes, ne 20:55 UTC
Vėjas 8 kt iš Rytų/Šiaurės Rytų
Temperatūra 3°C
Drėgmė 32%
Slėgis 1024 hPa
Matomumas: 16.1 km
Giedras dangus

METAR: PASV 222055Z AUTO 07008KT 10SM CLR 03/M12 A3024 RMK AO2 SLP266 T00291119 50003

Laikas: 13:27 (21:27 UTC)


TAF: trūkstamas

Orai ataskaitas ir orų prognozės (METAR, TAF).

turimą stotys yra geltonos ir raudonos taškus žemėlapyje.

Perkelti pele per norėdami pamatyti stoties vardą.

Tada spustelėkite, norėdami matyti oro stebėjimo ir prognozės.

Norėdami pakeisti žemėlapį: spustelėkite ant žalios mygtukų su juodo kryžiaus žemyn,; žalią mygtuką su brūkšneliu, jei norite nutolinti; arba žalių rodyklių gretimoms žemėlapius.


METAR-TAF: